createdAt,value
2019-06-10T00:00:41.457Z,83.93
2019-06-10T00:03:11.342Z,85.01
2019-06-10T00:05:41.126Z,85.17
2019-06-10T00:08:11.412Z,85.03
2019-06-10T00:10:38.650Z,86.68
2019-06-10T00:13:07.380Z,87.30
2019-06-10T00:15:36.315Z,87.43
2019-06-10T00:18:26.929Z,87.50
2019-06-10T00:20:34.231Z,87.21
2019-06-10T00:23:04.041Z,88.79
2019-06-10T00:25:32.409Z,89.42
2019-06-10T00:28:02.666Z,88.95
2019-06-10T00:30:31.303Z,89.17
2019-06-10T00:33:00.281Z,89.35
2019-06-10T00:35:28.859Z,89.52
2019-06-10T00:37:57.109Z,89.85
2019-06-10T00:40:24.915Z,89.82
2019-06-10T00:42:52.552Z,89.93
2019-06-10T00:45:21.634Z,89.44
2019-06-10T00:47:52.080Z,89.56
2019-06-10T00:50:21.687Z,90.20
2019-06-10T00:52:51.704Z,90.42
2019-06-10T00:55:21.165Z,90.75
2019-06-10T00:57:50.976Z,91.03
2019-06-10T01:00:25.576Z,91.18
2019-06-10T01:02:48.492Z,91.05
2019-06-10T01:05:17.907Z,91.52
2019-06-10T01:07:45.788Z,90.97
2019-06-10T01:10:14.629Z,91.48
2019-06-10T01:12:43.213Z,91.55
2019-06-10T01:15:13.996Z,91.69
2019-06-10T01:17:41.860Z,91.48
2019-06-10T01:20:10.745Z,91.71
2019-06-10T01:22:41.041Z,92.16
2019-06-10T01:25:09.854Z,91.55
2019-06-10T01:27:40.919Z,93.40
2019-06-10T01:30:16.781Z,93.90
2019-06-10T01:32:41.585Z,93.91
2019-06-10T01:35:11.550Z,93.83
2019-06-10T01:37:41.420Z,93.69
2019-06-10T01:40:12.951Z,94.36
2019-06-10T01:42:41.273Z,95.12
2019-06-10T01:45:12.484Z,94.57
2019-06-10T01:47:41.649Z,93.95
2019-06-10T01:50:09.605Z,93.43
2019-06-10T01:52:41.104Z,93.36
2019-06-10T01:55:12.138Z,93.40
2019-06-10T01:57:38.343Z,92.77
2019-06-10T02:00:17.055Z,92.02
2019-06-10T02:02:44.668Z,91.39
2019-06-10T02:05:13.258Z,91.52
2019-06-10T02:07:41.058Z,90.71
2019-06-10T02:10:11.810Z,90.44
2019-06-10T02:12:38.805Z,90.43
2019-06-10T02:15:07.313Z,89.75
2019-06-10T02:17:35.196Z,89.46
2019-06-10T02:20:04.785Z,89.50
2019-06-10T02:22:32.971Z,89.07
2019-06-10T02:25:01.324Z,88.92
2019-06-10T02:27:31.523Z,88.42
2019-06-10T02:30:03.835Z,88.64
2019-06-10T02:32:36.260Z,88.75
2019-06-10T02:35:13.230Z,89.05
2019-06-10T02:37:32.802Z,89.25
2019-06-10T02:39:58.203Z,89.00
2019-06-10T02:42:36.227Z,88.83
2019-06-10T02:45:05.133Z,89.73
2019-06-10T02:47:37.634Z,91.45
2019-06-10T02:50:07.887Z,92.11
2019-06-10T02:52:37.770Z,89.03
2019-06-10T02:55:04.094Z,87.39
2019-06-10T02:57:39.012Z,87.38
2019-06-10T03:00:06.456Z,87.54
2019-06-10T03:02:36.183Z,88.43
2019-06-10T03:05:04.468Z,88.99
2019-06-10T03:07:35.412Z,89.03
2019-06-10T03:10:04.670Z,88.92
2019-06-10T03:12:33.061Z,88.94
2019-06-10T03:15:02.135Z,89.57
2019-06-10T03:17:31.781Z,88.95
2019-06-10T03:20:02.140Z,90.15
2019-06-10T03:22:32.629Z,91.05
2019-06-10T03:24:59.889Z,91.13
2019-06-10T03:27:27.973Z,91.13
2019-06-10T03:29:56.052Z,92.42
2019-06-10T03:32:32.596Z,92.06
2019-06-10T03:34:55.004Z,92.96
2019-06-10T03:37:25.680Z,92.67
2019-06-10T03:39:53.121Z,93.02
2019-06-10T03:42:23.332Z,92.68
2019-06-10T03:44:52.562Z,91.97
2019-06-10T03:47:21.824Z,93.68
2019-06-10T03:49:55.462Z,94.87
2019-06-10T03:52:22.473Z,94.66
2019-06-10T03:54:52.129Z,94.96
2019-06-10T03:57:23.335Z,94.24
2019-06-10T03:59:49.945Z,94.20
2019-06-10T04:02:17.559Z,94.84
2019-06-10T04:04:45.338Z,96.18
2019-06-10T04:07:14.237Z,96.64
2019-06-10T04:09:42.652Z,96.40
2019-06-10T04:12:12.553Z,97.06
2019-06-10T04:14:41.968Z,97.57
2019-06-10T04:17:12.933Z,95.94
2019-06-10T04:19:42.203Z,97.37
2019-06-10T04:22:10.175Z,95.52
2019-06-10T04:24:38.309Z,95.46
2019-06-10T04:27:06.536Z,94.45
2019-06-10T04:29:35.009Z,94.43
2019-06-10T04:32:03.225Z,93.94
2019-06-10T04:34:35.439Z,93.80
2019-06-10T04:37:04.067Z,94.36
2019-06-10T04:39:33.623Z,94.61
2019-06-10T04:42:02.409Z,93.59
2019-06-10T04:44:32.838Z,95.13
2019-06-10T04:47:02.534Z,95.27
2019-06-10T04:49:32.550Z,95.41
2019-06-10T04:52:00.175Z,95.73
2019-06-10T04:54:28.658Z,95.11
2019-06-10T04:56:57.848Z,94.63
2019-06-10T04:59:27.582Z,93.97
2019-06-10T05:01:55.859Z,93.04
2019-06-10T05:04:25.538Z,92.97
2019-06-10T05:06:53.434Z,91.87
2019-06-10T05:09:23.832Z,90.94
2019-06-10T05:11:52.262Z,91.60
2019-06-10T05:14:23.375Z,91.67
2019-06-10T05:16:50.394Z,93.20
2019-06-10T05:19:19.631Z,91.46
2019-06-10T05:21:47.567Z,91.35
2019-06-10T05:24:15.258Z,91.79
2019-06-10T05:26:43.023Z,91.14
2019-06-10T05:29:12.130Z,90.06
2019-06-10T05:31:43.248Z,91.80
2019-06-10T05:34:13.109Z,90.72
2019-06-10T05:36:43.538Z,90.49
2019-06-10T05:39:12.169Z,90.57
2019-06-10T05:41:40.151Z,90.91
2019-06-10T05:44:07.676Z,90.15
2019-06-10T05:46:35.469Z,91.93
2019-06-10T05:49:03.546Z,91.72
2019-06-10T05:51:35.091Z,91.50
2019-06-10T05:54:02.198Z,92.66
2019-06-10T05:56:33.514Z,93.60
2019-06-10T05:59:03.937Z,94.85
2019-06-10T06:01:36.290Z,94.53
2019-06-10T06:04:03.078Z,92.90
2019-06-10T06:06:33.762Z,92.54
2019-06-10T06:09:02.238Z,94.62
2019-06-10T06:11:32.474Z,95.01
2019-06-10T06:13:59.289Z,95.91
2019-06-10T06:16:29.900Z,97.36
2019-06-10T06:18:59.134Z,99.15
2019-06-10T06:21:32.457Z,99.21
2019-06-10T06:23:57.657Z,99.76
2019-06-10T06:26:26.517Z,99.15
2019-06-10T06:28:55.727Z,100.00
2019-06-10T06:31:26.141Z,100.00
2019-06-10T06:33:54.944Z,100.00
2019-06-10T06:36:22.940Z,100.00
2019-06-10T06:38:53.032Z,100.00
2019-06-10T06:41:22.635Z,100.00
2019-06-10T06:43:53.119Z,98.79
2019-06-10T06:46:23.117Z,96.84
2019-06-10T06:48:54.785Z,96.84
2019-06-10T06:51:35.976Z,93.77
2019-06-10T06:53:56.306Z,95.69
2019-06-10T06:56:23.765Z,95.14
2019-06-10T06:58:52.412Z,95.86
2019-06-10T07:01:25.123Z,95.01
2019-06-10T07:03:53.285Z,94.25
2019-06-10T07:06:22.988Z,92.30
2019-06-10T07:09:04.117Z,90.53
2019-06-10T07:11:25.528Z,90.55
2019-06-10T07:13:55.500Z,88.37
2019-06-10T07:16:24.492Z,89.44
2019-06-10T07:18:53.885Z,87.83
2019-06-10T07:21:22.757Z,87.36
2019-06-10T07:23:52.807Z,89.55
2019-06-10T07:26:22.233Z,90.23
2019-06-10T07:28:53.454Z,88.48
2019-06-10T07:31:26.927Z,84.10
2019-06-10T07:33:52.325Z,78.73
2019-06-10T07:36:19.701Z,75.47
2019-06-10T07:38:49.150Z,73.21
2019-06-10T07:41:17.672Z,71.20
2019-06-10T07:43:49.667Z,71.28
2019-06-10T07:46:15.769Z,71.02
2019-06-10T07:48:47.883Z,69.72
2019-06-10T07:51:13.373Z,67.91
2019-06-10T07:53:44.618Z,65.55
2019-06-10T07:56:12.891Z,63.04
2019-06-10T07:58:47.015Z,66.40
2019-06-10T08:01:13.255Z,61.40
2019-06-10T08:03:42.561Z,61.51
2019-06-10T08:06:12.954Z,63.42
2019-06-10T08:08:43.897Z,64.18
2019-06-10T08:11:13.708Z,61.27
2019-06-10T08:13:45.609Z,61.48
2019-06-10T08:16:13.076Z,62.87
2019-06-10T08:19:13.946Z,59.28
2019-06-10T08:21:12.456Z,60.26
2019-06-10T08:23:41.049Z,62.65
2019-06-10T08:26:12.453Z,61.04
2019-06-10T08:28:39.719Z,58.33
2019-06-10T08:31:08.300Z,59.25
2019-06-10T08:33:37.052Z,57.78
2019-06-10T08:36:05.247Z,57.70
2019-06-10T08:38:33.292Z,57.81
2019-06-10T08:41:03.249Z,57.55
2019-06-10T08:43:32.888Z,58.75
2019-06-10T08:46:02.623Z,60.42
2019-06-10T08:48:32.730Z,60.96
2019-06-10T08:51:00.125Z,59.11
2019-06-10T08:53:28.351Z,59.25
2019-06-10T08:55:56.915Z,57.99
2019-06-10T08:58:25.258Z,63.86
2019-06-10T09:00:53.969Z,61.51
2019-06-10T09:03:23.368Z,61.58
2019-06-10T09:05:54.469Z,62.30
2019-06-10T09:08:23.517Z,64.17
2019-06-10T09:10:54.330Z,61.54
2019-06-10T09:16:10.836Z,61.63
2019-06-10T09:18:29.172Z,55.17
2019-06-10T09:20:57.423Z,54.93
2019-06-10T09:23:25.765Z,54.85
2019-06-10T09:26:18.480Z,56.49
2019-06-10T09:28:55.575Z,60.75
2019-06-10T09:31:22.986Z,62.31
2019-06-10T09:33:54.398Z,60.31
2019-06-10T09:36:20.062Z,60.84
2019-06-10T09:38:49.090Z,61.84
2019-06-10T09:41:18.901Z,59.29
2019-06-10T09:44:23.960Z,60.08
2019-06-10T09:46:56.111Z,62.42
2019-06-10T09:49:25.741Z,61.79
2019-06-10T09:51:57.167Z,64.82
2019-06-10T09:54:23.947Z,60.76
2019-06-10T09:56:54.592Z,63.78
2019-06-10T09:59:23.501Z,61.21
2019-06-10T10:01:59.979Z,60.27
2019-06-10T10:04:23.706Z,58.45
2019-06-10T10:06:57.065Z,56.81
2019-06-10T10:09:23.283Z,60.34
2019-06-10T10:11:55.173Z,54.71
2019-06-10T10:14:23.042Z,55.08
2019-06-10T10:16:58.671Z,55.47
2019-06-10T10:19:23.043Z,52.64
2019-06-10T10:21:56.027Z,52.66
2019-06-10T10:24:23.001Z,52.51
2019-06-10T10:26:53.291Z,51.36
2019-06-10T10:29:20.755Z,51.91
2019-06-10T10:31:50.748Z,49.52
2019-06-10T10:34:18.657Z,48.05
2019-06-10T10:36:48.734Z,48.40
2019-06-10T10:39:16.946Z,45.44
2019-06-10T10:41:46.817Z,46.59
2019-06-10T10:44:14.848Z,46.34
2019-06-10T10:46:45.590Z,47.41
2019-06-10T10:49:14.759Z,49.45
2019-06-10T10:51:42.944Z,49.03
2019-06-10T10:54:22.469Z,48.19
2019-06-10T10:56:43.321Z,45.76
2019-06-10T10:59:13.313Z,45.40
2019-06-10T11:01:42.764Z,44.33
2019-06-10T11:04:13.244Z,42.33
2019-06-10T11:06:42.668Z,41.79
2019-06-10T11:09:12.720Z,41.92
2019-06-10T11:11:43.053Z,41.94
2019-06-10T11:14:09.770Z,41.83
2019-06-10T11:16:39.199Z,43.11
2019-06-10T11:19:07.557Z,41.62
2019-06-10T11:21:36.230Z,44.14
2019-06-10T11:24:04.952Z,44.87
2019-06-10T11:26:33.107Z,44.26
2019-06-10T11:29:03.130Z,43.01
2019-06-10T11:31:30.169Z,41.10
2019-06-10T11:33:59.185Z,41.41
2019-06-10T11:36:27.245Z,41.71
2019-06-10T11:38:56.758Z,41.72
2019-06-10T11:41:24.980Z,41.45
2019-06-10T11:43:56.057Z,40.81
2019-06-10T11:46:22.453Z,37.99
2019-06-10T11:48:53.659Z,38.97
2019-06-10T11:51:23.430Z,41.80
2019-06-10T11:53:54.354Z,42.82
2019-06-10T11:56:22.303Z,42.23
2019-06-10T11:58:55.163Z,42.20
2019-06-10T12:01:22.877Z,41.95
2019-06-10T12:03:53.943Z,43.18
2019-06-10T12:06:22.851Z,42.55
2019-06-10T12:08:53.577Z,40.51
2019-06-10T12:11:22.825Z,40.45
2019-06-10T12:13:53.721Z,41.02
2019-06-10T12:17:14.772Z,42.67
2019-06-10T12:18:53.741Z,42.71
2019-06-10T12:21:23.588Z,44.40
2019-06-10T12:23:55.925Z,44.63
2019-06-10T12:26:23.263Z,45.51
2019-06-10T12:28:54.509Z,44.53
2019-06-10T12:31:23.192Z,44.69
2019-06-10T12:33:55.272Z,45.51
2019-06-10T12:36:23.796Z,45.35
2019-06-10T12:38:56.420Z,44.09
2019-06-10T12:41:23.231Z,45.35
2019-06-10T12:43:54.830Z,45.03
2019-06-10T12:46:23.525Z,46.86
2019-06-10T12:48:53.967Z,45.60
2019-06-10T12:51:22.693Z,46.41
2019-06-10T12:53:51.474Z,44.77
2019-06-10T12:56:19.486Z,43.79
2019-06-10T12:58:47.516Z,46.04
2019-06-10T13:01:15.208Z,44.05
2019-06-10T13:03:43.964Z,44.34
2019-06-10T13:06:13.016Z,47.19
2019-06-10T13:08:42.911Z,45.36
2019-06-10T13:11:13.269Z,46.35
2019-06-10T13:13:42.578Z,46.84
2019-06-10T13:16:13.897Z,46.85
2019-06-10T13:18:40.657Z,45.80
2019-06-10T13:21:13.629Z,45.73
2019-06-10T13:23:40.163Z,46.40
2019-06-10T13:26:12.417Z,48.52
2019-06-10T13:28:37.721Z,47.21
2019-06-10T13:31:09.519Z,47.07
2019-06-10T13:33:36.386Z,45.20
2019-06-10T13:36:06.776Z,45.54
2019-06-10T13:38:34.826Z,44.23
2019-06-10T13:41:04.096Z,42.94
2019-06-10T13:43:33.861Z,43.45
2019-06-10T13:46:03.137Z,43.72
2019-06-10T13:48:32.179Z,44.67
2019-06-10T13:51:01.466Z,45.15
2019-06-10T13:53:29.569Z,44.39
2019-06-10T13:56:19.008Z,42.78
2019-06-10T13:58:27.293Z,43.46
2019-06-10T14:00:56.398Z,44.30
2019-06-10T14:03:24.944Z,43.70
2019-06-10T14:05:59.184Z,42.35
2019-06-10T14:08:23.333Z,43.52
2019-06-10T14:10:53.670Z,43.75
2019-06-10T14:13:23.570Z,45.11
2019-06-10T14:15:53.008Z,45.11
2019-06-10T14:18:22.885Z,45.49
2019-06-10T14:20:52.789Z,43.83
2019-06-10T14:23:22.077Z,45.13
2019-06-10T14:25:49.513Z,44.38
2019-06-10T14:28:35.846Z,44.88
2019-06-10T14:30:47.319Z,44.23
2019-06-10T14:33:16.728Z,45.74
2019-06-10T14:35:44.790Z,45.86
2019-06-10T14:38:15.408Z,45.00
2019-06-10T14:40:43.130Z,44.35
2019-06-10T14:43:13.501Z,43.43
2019-06-10T14:45:42.786Z,44.56
2019-06-10T14:48:11.501Z,43.39
2019-06-10T14:50:40.173Z,44.74
2019-06-10T14:53:08.955Z,42.68
2019-06-10T14:55:36.882Z,44.72
2019-06-10T14:58:05.391Z,44.42
2019-06-10T15:00:33.503Z,45.51
2019-06-10T15:03:05.104Z,44.81
2019-06-10T15:05:32.985Z,45.46
2019-06-10T15:08:03.144Z,48.57
2019-06-10T15:10:32.166Z,50.33
2019-06-10T15:13:02.218Z,51.32
2019-06-10T15:15:29.604Z,51.02
2019-06-10T15:17:57.389Z,51.16
2019-06-10T15:20:25.480Z,51.04
2019-06-10T15:22:53.708Z,52.04
2019-06-10T15:25:27.817Z,51.81
2019-06-10T15:27:52.691Z,51.39
2019-06-10T15:30:26.543Z,51.01
2019-06-10T15:32:52.468Z,53.78
2019-06-10T15:35:22.114Z,54.59
2019-06-10T15:37:52.590Z,55.82
2019-06-10T15:40:20.219Z,56.04
2019-06-10T15:42:48.838Z,56.85
2019-06-10T15:45:19.465Z,57.73
2019-06-10T15:47:47.762Z,58.06
2019-06-10T15:50:17.635Z,58.51
2019-06-10T15:52:46.635Z,58.80
2019-06-10T15:55:47.704Z,59.93
2019-06-10T15:57:46.812Z,60.26
2019-06-10T16:00:28.768Z,60.53
2019-06-10T16:02:55.398Z,60.83
2019-06-10T16:05:25.344Z,60.50
2019-06-10T16:07:58.678Z,61.47
2019-06-10T16:10:32.560Z,73.90
2019-06-10T16:13:03.917Z,100.00
2019-06-10T16:15:37.339Z,100.00
2019-06-10T16:18:13.642Z,100.00
2019-06-10T20:53:18.526Z,88.16
2019-06-10T20:55:51.325Z,87.77
2019-06-10T20:58:14.626Z,87.70
2019-06-10T21:00:49.965Z,87.03
2019-06-10T21:03:13.413Z,87.28
2019-06-10T21:05:43.851Z,87.52
2019-06-10T21:08:12.429Z,87.53
2019-06-10T21:10:42.477Z,87.49
2019-06-10T21:13:12.360Z,87.63
2019-06-10T21:15:45.686Z,87.91
2019-06-10T21:18:13.227Z,87.24
2019-06-10T21:20:44.027Z,87.39
2019-06-10T21:23:13.690Z,87.23
2019-06-10T21:25:41.223Z,86.89
2019-06-10T21:28:12.981Z,86.33
2019-06-10T21:30:48.188Z,84.12
2019-06-10T21:33:12.978Z,83.80
2019-06-10T21:35:44.099Z,85.02
2019-06-10T21:38:12.707Z,84.99
2019-06-10T21:40:42.481Z,84.82
2019-06-10T21:43:15.460Z,85.89
2019-06-10T21:45:51.307Z,85.81
2019-06-10T21:48:25.687Z,85.08
2019-06-10T21:51:09.432Z,84.82
2019-06-10T21:53:46.637Z,84.43
2019-06-10T21:56:22.329Z,84.46
2019-06-10T21:59:02.274Z,83.73
2019-06-10T22:01:44.347Z,83.66
2019-06-10T22:04:32.634Z,83.45
2019-06-10T22:07:07.532Z,82.71
2019-06-10T22:09:50.335Z,82.41
2019-06-10T22:12:42.267Z,83.56
2019-06-10T22:15:29.493Z,82.97
2019-06-10T22:17:58.243Z,83.31
2019-06-10T22:20:26.526Z,83.98
2019-06-10T22:22:56.115Z,83.97
2019-06-10T22:25:23.855Z,84.44
2019-06-10T22:27:52.051Z,83.03
2019-06-10T22:30:20.019Z,82.82
2019-06-10T22:32:47.801Z,83.58
2019-06-10T22:35:15.635Z,84.24
2019-06-10T22:37:43.341Z,84.29
2019-06-10T22:40:12.361Z,84.64
2019-06-10T22:42:41.403Z,84.03
2019-06-10T22:45:09.382Z,84.37
2019-06-10T22:47:37.531Z,84.69
2019-06-10T22:50:07.607Z,84.38
2019-06-10T22:52:35.222Z,84.50
2019-06-10T22:55:03.655Z,84.16
2019-06-10T22:57:31.885Z,83.94
2019-06-10T22:59:59.530Z,84.16
2019-06-10T23:02:27.614Z,83.14
2019-06-10T23:04:58.025Z,83.32
2019-06-10T23:07:26.754Z,83.36
2019-06-10T23:09:57.831Z,82.88
2019-06-10T23:12:27.271Z,83.38
2019-06-10T23:14:56.263Z,83.25
2019-06-10T23:17:24.786Z,83.71
2019-06-10T23:19:56.622Z,83.23
2019-06-10T23:22:24.919Z,83.64
2019-06-10T23:24:55.716Z,84.28
2019-06-10T23:27:26.038Z,84.27
2019-06-10T23:29:57.575Z,84.41
2019-06-10T23:32:28.528Z,84.21
2019-06-10T23:35:01.022Z,83.81
2019-06-10T23:37:32.252Z,83.74
2019-06-10T23:40:03.980Z,84.28
2019-06-10T23:42:32.071Z,84.66
2019-06-10T23:45:01.846Z,84.69
2019-06-10T23:47:29.433Z,84.07
2019-06-10T23:49:57.690Z,84.88
2019-06-10T23:52:25.361Z,84.77
2019-06-10T23:54:54.438Z,84.57
2019-06-10T23:57:22.427Z,84.39
2019-06-10T23:59:52.491Z,84.58
